createdAt,value
2016-11-13T19:40:57.550Z,65.08
2016-11-13T19:41:57.528Z,66.3
2016-11-13T19:42:57.705Z,66.58
2016-11-13T19:43:57.495Z,67.53
2016-11-13T19:44:57.494Z,67.15
2016-11-13T19:45:57.451Z,65.17
2016-11-13T19:46:57.423Z,67.06
2016-11-13T19:47:57.422Z,67.91
2016-11-13T19:48:57.421Z,66.58
2016-11-13T19:49:57.428Z,66.58
2016-11-13T19:50:57.439Z,67.25
2016-11-13T19:51:57.387Z,66.49
2016-11-13T19:52:57.410Z,66.11
2016-11-13T19:53:57.403Z,65.45
2016-11-13T19:54:57.403Z,64.14
2016-11-13T19:55:57.413Z,63.38
2016-11-13T19:56:57.421Z,63.76
2016-11-13T19:57:57.330Z,64.98
2016-11-13T19:58:57.329Z,65.92
2016-11-13T19:59:57.338Z,66.58
2016-11-13T20:00:57.350Z,67.15
2016-11-13T20:01:57.329Z,67.81
2016-11-13T20:02:57.227Z,67.72
2016-11-13T20:03:57.226Z,66.87
2016-11-13T20:04:57.237Z,66.21
2016-11-13T20:05:57.245Z,66.68
2016-11-13T20:06:57.251Z,67.91
2016-11-13T20:07:57.091Z,69.6
2016-11-13T20:08:57.069Z,70.83
2016-11-13T20:09:57.079Z,70.98
2016-11-13T20:10:57.178Z,71.64
2016-11-13T20:11:57.019Z,71.92
2016-11-13T20:12:57.036Z,72.68
2016-11-13T20:13:57.008Z,72.3
2016-11-13T20:14:56.988Z,71.08
2016-11-13T20:15:56.873Z,68.15
2016-11-13T20:16:56.860Z,66.36
2016-11-13T20:17:56.840Z,66.36
2016-11-13T20:18:56.817Z,66.83
2016-11-13T20:19:56.809Z,66.64
2016-11-13T20:20:56.769Z,67.12
2016-11-13T20:21:57.263Z,66.55
2016-11-13T20:22:56.740Z,66.55
2016-11-13T20:23:56.724Z,65.99
2016-11-13T20:24:56.774Z,66.64
2016-11-13T20:25:56.676Z,65.61
2016-11-13T20:27:11.536Z,66.27
2016-11-13T20:27:56.640Z,67.87
2016-11-13T20:28:56.619Z,67.68
2016-11-13T20:29:56.601Z,67.59
2016-11-13T20:30:56.582Z,67.59
2016-11-13T20:31:56.576Z,67.3
2016-11-13T20:32:56.544Z,65.23
2016-11-13T20:33:56.520Z,65.7
2016-11-13T20:34:56.505Z,67.97
2016-11-13T20:35:56.485Z,68.15
2016-11-13T20:36:56.467Z,68.63
2016-11-13T20:37:56.524Z,68.91
2016-11-13T20:38:56.472Z,68.06
2016-11-13T20:39:56.403Z,66.55
2016-11-13T20:40:56.387Z,66.55
2016-11-13T20:41:56.371Z,66.93
2016-11-13T20:42:56.380Z,67.78
2016-11-13T20:43:56.373Z,66.93
2016-11-13T20:44:56.313Z,68.06
2016-11-13T20:45:56.294Z,68.63
2016-11-13T20:46:56.269Z,68.72
2016-11-13T20:47:56.247Z,67.68
2016-11-13T20:48:56.234Z,67.87
2016-11-13T20:49:56.215Z,68.53
2016-11-13T20:50:56.187Z,67.87
2016-11-13T20:51:56.171Z,67.87
2016-11-13T20:52:56.152Z,67.4
2016-11-13T20:53:56.136Z,68.25
2016-11-13T20:54:56.124Z,70.14
2016-11-13T20:55:56.090Z,71.45
2016-11-13T20:56:56.083Z,72.77
2016-11-13T20:57:56.062Z,73.53
2016-11-13T20:58:56.039Z,73.34
2016-11-13T20:59:56.016Z,73.43
2016-11-13T21:00:55.999Z,74.28
2016-11-13T21:01:55.991Z,74.85
2016-11-13T21:02:55.957Z,75.04
2016-11-13T21:03:55.943Z,75.79
2016-11-13T21:04:56.028Z,77.11
2016-11-13T21:05:55.902Z,77.2
2016-11-13T21:06:55.884Z,76.64
2016-11-13T21:07:55.880Z,76.54
2016-11-13T21:08:55.870Z,76.17
2016-11-13T21:09:55.824Z,75.32
2016-11-13T21:10:55.805Z,76.45
2016-11-13T21:11:55.797Z,76.17
2016-11-13T21:12:55.774Z,72.4
2016-11-13T21:14:10.836Z,73.47
2016-11-13T21:14:55.831Z,73.75
2016-11-13T21:15:56.065Z,76.4
2016-11-13T21:16:56.063Z,77.53
2016-11-13T21:17:55.668Z,79.98
2016-11-13T21:18:55.646Z,85.17
2016-11-13T21:19:55.627Z,87.62
2016-11-13T21:20:55.978Z,89.69
2016-11-13T21:21:55.594Z,91.3
2016-11-13T21:22:55.576Z,92.33
2016-11-13T21:23:55.549Z,93.65
2016-11-13T21:24:55.531Z,92.99
2016-11-13T21:25:55.746Z,92.71
2016-11-13T21:26:55.809Z,92.71
2016-11-13T21:27:55.501Z,93.28
2016-11-13T21:28:55.823Z,93.65
2016-11-13T21:29:55.435Z,94.88
2016-11-13T21:30:55.423Z,97.99
2016-11-13T21:31:55.405Z,98.84
2016-11-13T21:32:55.375Z,99.99
2016-11-13T21:33:55.394Z,99.99
2016-11-13T21:34:55.359Z,99.99
2016-11-13T21:35:55.327Z,99.99
2016-11-13T21:36:55.308Z,99.99
2016-11-13T21:37:55.283Z,99.99
2016-11-13T21:38:55.273Z,99.99
2016-11-13T21:39:55.254Z,99.99
2016-11-13T21:40:55.229Z,99.99
2016-11-13T21:41:55.233Z,99.99
2016-11-13T21:42:55.187Z,99.99
2016-11-13T21:43:55.166Z,99.99
2016-11-13T21:44:55.150Z,99.99
2016-11-13T21:45:55.127Z,99.99
2016-11-13T21:46:55.119Z,99.99
2016-11-13T21:47:55.104Z,99.99
2016-11-13T21:48:55.093Z,99.99
2016-11-13T21:49:55.065Z,99.99
2016-11-13T21:50:55.035Z,99.99
2016-11-13T21:51:55.017Z,99.99
2016-11-13T21:52:54.997Z,99.99
2016-11-13T21:53:55.221Z,99.99
2016-11-13T21:54:54.979Z,99.99
2016-11-13T21:55:54.945Z,99.99
2016-11-13T21:56:54.925Z,99.99
2016-11-13T21:57:54.900Z,99.99
2016-11-13T21:58:54.883Z,99.99
2016-11-13T21:59:54.878Z,99.69
2016-11-13T22:00:54.847Z,99.99
2016-11-13T22:01:54.828Z,99.88
2016-11-13T22:02:54.804Z,99.79
2016-11-13T22:03:54.816Z,99.13
2016-11-13T22:04:54.772Z,98.75
2016-11-13T22:05:54.757Z,97.71
2016-11-13T22:06:54.735Z,96.95
2016-11-13T22:07:54.713Z,97.33
2016-11-13T22:08:54.699Z,96.86
2016-11-13T22:09:54.681Z,94.79
2016-11-13T22:10:55.009Z,91.39
2016-11-13T22:11:54.646Z,91.67
2016-11-13T22:12:54.624Z,93.84
2016-11-13T22:13:54.600Z,95.36
2016-11-13T22:14:54.581Z,96.11
2016-11-13T22:15:54.559Z,93.37
2016-11-13T22:16:54.557Z,93.37
2016-11-13T22:17:54.529Z,94.03
2016-11-13T22:18:54.524Z,94.03
2016-11-13T22:19:54.487Z,92.8
2016-11-13T22:20:54.461Z,90.17
2016-11-13T22:21:54.537Z,88.56
2016-11-13T22:22:54.433Z,88.28
2016-11-13T22:23:54.411Z,87.9
2016-11-13T22:24:54.400Z,85.92
2016-11-13T22:25:54.378Z,84.03
2016-11-13T22:26:54.359Z,81.87
2016-11-13T22:27:54.331Z,81.21
2016-11-13T22:28:54.311Z,80.45
2016-11-13T22:29:54.292Z,80.83
2016-11-13T22:30:54.285Z,82.9
2016-11-13T22:31:54.254Z,82.81
2016-11-13T22:32:54.261Z,82.15
2016-11-13T22:33:54.220Z,80.73
2016-11-13T22:34:54.206Z,80.73
2016-11-13T22:35:54.537Z,81.68
2016-11-13T22:36:54.162Z,80.83
2016-11-13T22:37:54.190Z,82.15
2016-11-13T22:38:54.130Z,83.09
2016-11-13T22:39:54.113Z,83
2016-11-13T22:40:54.087Z,80.45
2016-11-13T22:41:54.069Z,78.66
2016-11-13T22:42:54.050Z,75.92
2016-11-13T22:43:54.086Z,76.4
2016-11-13T22:44:54.035Z,77.15
2016-11-13T22:45:53.989Z,75.73
2016-11-13T22:46:53.970Z,76.96
2016-11-13T22:47:53.957Z,78.38
2016-11-13T22:48:53.929Z,78.94
2016-11-13T22:49:53.918Z,79.22
2016-11-13T22:50:53.896Z,77.91
2016-11-13T22:51:53.876Z,77.44
2016-11-13T22:52:53.859Z,75.36
2016-11-13T22:53:53.840Z,74.22
2016-11-13T22:54:53.829Z,75.17
2016-11-13T22:55:53.806Z,73.57
2016-11-13T22:56:53.785Z,73.19
2016-11-13T22:57:53.764Z,72.91
2016-11-13T22:58:53.742Z,72.91
2016-11-13T22:59:53.724Z,73.94
2016-11-13T23:00:53.708Z,73.47
2016-11-13T23:01:53.690Z,72.87
2016-11-13T23:02:53.669Z,73.62
2016-11-13T23:03:53.645Z,73.06
2016-11-13T23:04:53.636Z,71.73
2016-11-13T23:05:53.609Z,72.02
2016-11-13T23:06:53.584Z,72.3
2016-11-13T23:07:53.572Z,71.45
2016-11-13T23:08:53.548Z,70.61
2016-11-13T23:09:53.531Z,71.17
2016-11-13T23:10:53.512Z,72.02
2016-11-13T23:11:53.493Z,71.64
2016-11-13T23:12:53.475Z,69.95
2016-11-13T23:13:53.458Z,68.15
2016-11-13T23:14:53.431Z,67.68
2016-11-13T23:15:53.422Z,67.02
2016-11-13T23:16:53.396Z,66.27
2016-11-13T23:17:53.380Z,65.61
2016-11-13T23:18:53.671Z,66.27
2016-11-13T23:19:53.341Z,65.7
2016-11-13T23:20:53.315Z,65.05
2016-11-13T23:21:53.291Z,64.1
2016-11-13T23:22:53.277Z,63.82
2016-11-13T23:23:53.267Z,64.2
2016-11-13T23:24:53.403Z,65.8
2016-11-13T23:25:53.229Z,67.3
2016-11-13T23:26:53.206Z,67.87
2016-11-13T23:27:53.201Z,68.82
2016-11-13T23:28:53.166Z,68.15
2016-11-13T23:29:53.143Z,68.06
2016-11-13T23:30:53.135Z,67.97
2016-11-13T23:31:53.105Z,69.48
2016-11-13T23:32:53.100Z,70.7
2016-11-13T23:33:53.072Z,70.42
2016-11-13T23:34:53.047Z,70.32
2016-11-13T23:35:53.033Z,69.76
2016-11-13T23:36:53.006Z,69.85
2016-11-13T23:37:52.984Z,69
2016-11-13T23:38:52.972Z,66.55
2016-11-13T23:39:52.969Z,65.23
2016-11-13T23:40:52.930Z,63.91
2016-11-13T23:41:52.910Z,64.2
2016-11-13T23:42:52.894Z,65.8
2016-11-13T23:43:52.871Z,66.36
2016-11-13T23:44:52.858Z,66.17
2016-11-13T23:45:52.833Z,65.89
2016-11-13T23:46:52.834Z,65.89
2016-11-13T23:47:52.793Z,65.05
2016-11-13T23:48:52.775Z,65.33
2016-11-13T23:49:52.770Z,65.61
2016-11-13T23:50:52.739Z,65.23
2016-11-13T23:51:52.723Z,63.91
2016-11-13T23:52:52.698Z,62.59
2016-11-13T23:53:52.673Z,61.46
2016-11-13T23:54:52.665Z,61.18
2016-11-13T23:55:52.640Z,61.18
2016-11-13T23:56:52.618Z,59.95
2016-11-13T23:57:52.630Z,59.86
2016-11-13T23:58:52.584Z,59.48
2016-11-13T23:59:52.566Z,59.3
